Time;durP1;ratioP1;P1;durP2;ratioP2;P2;SDS_P1;SDS_P2;PMS_P1;PMS_P2;Temp;Humidity;BMP_temperature;BMP_pressure;BME280_temperature;BME280_humidity;BME280_pressure;Samples;Min_cycle;Max_cycle;Signal;HPM_P1;HPM_P2
2022/11/30 00:02:05;;;;;;;16.33;9.40;;;;;;;7.02;63.84;100950.66;5059101;28;20418;-85
2022/11/30 00:04:54;;;;;;;15.55;10.10;;;;;;;6.94;65.51;100954.78;5060313;28;20044;-87
2022/11/30 00:07:43;;;;;;;15.52;8.60;;;;;;;6.87;65.13;100949.72;5073182;28;20055;-87
2022/11/30 00:10:37;;;;;;;14.68;9.20;;;;;;;6.72;65.85;100954.44;5062387;28;20060;-85
2022/11/30 00:13:26;;;;;;;15.95;9.65;;;;;;;6.75;66.56;100945.78;5073519;28;20418;-87
2022/11/30 00:16:14;;;;;;;15.27;10.20;;;;;;;6.72;65.44;100949.84;5063568;28;20678;-87
2022/11/30 00:19:20;;;;;;;21.83;9.00;;;;;;;6.94;65.52;100949.38;5062776;28;20053;-88
2022/11/30 00:22:14;;;;;;;18.40;8.82;;;;;;;6.80;65.38;100949.25;5076763;28;20044;-86
2022/11/30 00:25:02;;;;;;;14.43;9.30;;;;;;;7.19;64.95;100951.84;5079271;22;20056;-74
2022/11/30 00:27:46;;;;;;;17.52;9.25;;;;;;;7.21;65.50;100954.25;5050265;28;20048;-75
2022/11/30 00:30:32;;;;;;;21.95;8.95;;;;;;;7.20;64.98;100948.03;5052963;28;20048;-74
2022/11/30 00:33:17;;;;;;;9.32;6.18;;;;;;;6.83;65.58;100945.16;5052664;28;20048;-74
2022/11/30 00:36:05;;;;;;;10.38;7.18;;;;;;;6.87;65.47;100947.00;5042759;28;20044;-74
2022/11/30 00:38:50;;;;;;;12.43;7.93;;;;;;;6.79;66.20;100944.94;5037880;28;20052;-74
2022/11/30 00:41:35;;;;;;;17.10;8.60;;;;;;;7.01;66.52;100949.06;5035202;28;20052;-74
2022/11/30 00:44:19;;;;;;;14.15;9.43;;;;;;;7.30;65.12;100945.22;5047801;28;20044;-74
2022/11/30 00:47:04;;;;;;;9.95;6.65;;;;;;;7.32;65.14;100953.03;5034804;28;20052;-74
2022/11/30 00:49:49;;;;;;;17.98;9.98;;;;;;;7.56;65.53;100955.75;5034309;28;20053;-74
2022/11/30 00:52:34;;;;;;;11.07;6.47;;;;;;;7.68;65.32;100954.22;5033934;28;20060;-74
2022/11/30 00:55:18;;;;;;;8.55;6.43;;;;;;;7.46;65.10;100951.28;5039047;28;20052;-74
2022/11/30 00:58:05;;;;;;;12.68;8.07;;;;;;;7.70;65.03;100951.25;5035028;28;20049;-73
2022/11/30 01:00:50;;;;;;;12.43;8.27;;;;;;;7.83;64.82;100952.41;5033769;28;20544;-73
2022/11/30 01:03:35;;;;;;;7.85;5.78;;;;;;;7.93;64.20;100955.00;5030460;28;20670;-74
2022/11/30 01:06:20;;;;;;;13.15;7.15;;;;;;;7.96;63.65;100955.22;5014947;28;20049;-74
2022/11/30 01:09:04;;;;;;;10.38;6.47;;;;;;;7.74;65.32;100953.06;5014751;28;20072;-76
2022/11/30 01:11:49;;;;;;;10.68;6.45;;;;;;;7.76;64.79;100954.69;5029998;28;20052;-74
2022/11/30 01:14:34;;;;;;;7.70;6.10;;;;;;;7.90;64.23;100955.59;5034494;28;20064;-74
2022/11/30 01:17:19;;;;;;;12.02;8.55;;;;;;;8.03;64.20;100965.69;5034470;28;20041;-74
2022/11/30 01:20:06;;;;;;;14.30;7.20;;;;;;;8.03;64.23;100952.94;5034302;28;20060;-74
2022/11/30 01:22:51;;;;;;;13.65;7.97;;;;;;;8.00;64.31;100950.84;5028299;28;20044;-74
2022/11/30 01:25:36;;;;;;;13.18;6.53;;;;;;;7.71;64.42;100953.66;5034088;28;20045;-74
2022/11/30 01:28:21;;;;;;;7.95;6.18;;;;;;;7.42;65.29;100944.81;5034490;28;20048;-74
2022/11/30 01:31:08;;;;;;;12.70;7.55;;;;;;;7.90;64.95;100955.59;5035280;28;20414;-74
2022/11/30 01:33:54;;;;;;;13.52;7.95;;;;;;;7.87;64.02;100954.28;5032271;28;20052;-74
2022/11/30 01:36:39;;;;;;;13.57;8.98;;;;;;;7.78;64.73;100960.59;5038309;28;20116;-74
2022/11/30 01:39:24;;;;;;;15.90;8.45;;;;;;;7.98;63.98;100963.03;5036411;28;20052;-74
2022/11/30 01:42:15;;;;;;;12.43;7.03;;;;;;;7.72;65.66;100949.84;5025226;28;20048;-74
2022/11/30 01:45:02;;;;;;;16.58;8.60;;;;;;;7.89;65.70;100957.47;5014147;28;20140;-76
2022/11/30 01:47:52;;;;;;;12.43;8.82;;;;;;;7.87;65.02;100957.00;5030216;28;20048;-74
2022/11/30 01:50:38;;;;;;;14.70;9.02;;;;;;;7.32;66.47;100953.03;5014049;28;20053;-74
2022/11/30 01:53:23;;;;;;;11.60;7.55;;;;;;;7.54;66.92;100956.03;5027757;28;20521;-74
2022/11/30 01:56:08;;;;;;;10.75;7.65;;;;;;;7.79;66.85;100956.81;5033812;28;20052;-74
2022/11/30 01:58:53;;;;;;;9.70;6.07;;;;;;;7.97;66.78;100943.31;5033819;28;20060;-74
2022/11/30 02:01:38;;;;;;;10.18;6.50;;;;;;;8.17;66.78;100950.34;5037711;28;20064;-75
2022/11/30 02:04:27;;;;;;;11.80;8.38;;;;;;;8.34;66.22;100947.94;5014215;28;20041;-74
2022/11/30 02:07:12;;;;;;;14.13;8.77;;;;;;;8.27;64.95;100950.19;5020411;28;20524;-74
2022/11/30 02:09:57;;;;;;;9.57;6.53;;;;;;;7.91;66.05;100946.38;5038078;28;20048;-74
2022/11/30 02:13:08;;;;;;;11.98;6.88;;;;;;;7.50;67.29;100943.38;5031165;28;20049;-75
2022/11/30 02:16:21;;;;;;;16.08;9.45;;;;;;;7.03;68.95;100930.63;5033101;28;20056;-74
2022/11/30 02:19:21;;;;;;;15.50;9.88;;;;;;;6.90;69.84;100934.03;5033119;28;20040;-75
2022/11/30 02:22:21;;;;;;;17.05;9.15;;;;;;;7.51;67.89;100939.59;5045222;28;20052;-74
2022/11/30 02:25:16;;;;;;;16.50;9.63;;;;;;;7.19;69.14;100941.00;5054164;28;20052;-74
2022/11/30 02:28:19;;;;;;;10.40;6.70;;;;;;;7.15;69.71;100945.41;5066615;28;20051;-74
2022/11/30 02:31:10;;;;;;;16.20;10.07;;;;;;;6.97;70.32;100937.19;5059506;28;20044;-75
2022/11/30 02:33:58;;;;;;;19.17;9.80;;;;;;;7.13;69.33;100935.94;5060140;28;20044;-74
2022/11/30 02:36:45;;;;;;;14.23;9.30;;;;;;;7.08;69.88;100942.22;5052800;28;20059;-74
2022/11/30 02:39:29;;;;;;;15.80;9.68;;;;;;;6.93;70.42;100947.78;5061914;28;20515;-75
2022/11/30 02:42:15;;;;;;;11.20;7.15;;;;;;;7.38;69.75;100946.47;5072715;28;20051;-74
2022/11/30 02:44:59;;;;;;;;;;;;;;;7.39;70.06;100939.97;5072602;28;20044;-74
2022/11/30 02:48:10;;;;;;;12.48;8.30;;;;;;;7.52;69.54;100949.28;5061944;28;20284;-75
2022/11/30 02:51:01;;;;;;;14.13;9.38;;;;;;;7.90;68.55;100950.16;5041059;28;20044;-75
2022/11/30 02:53:47;;;;;;;16.15;9.27;;;;;;;8.18;67.36;100946.50;5042168;28;20044;-74
2022/11/30 02:56:32;;;;;;;12.77;8.45;;;;;;;8.27;67.06;100935.84;5052551;28;20048;-74
2022/11/30 02:59:18;;;;;;;11.68;7.05;;;;;;;7.90;67.70;100939.34;5039068;28;20519;-74
2022/11/30 03:02:02;;;;;;;16.63;8.88;;;;;;;7.94;68.15;100934.94;5061634;28;20052;-75
2022/11/30 03:04:47;;;;;;;;;;;;;;;8.17;68.09;100942.22;5054541;28;20048;-74
2022/11/30 03:07:32;;;;;;;15.88;8.95;;;;;;;7.99;67.53;100940.28;5052360;28;19917;-74
2022/11/30 03:10:17;;;;;;;14.93;6.65;;;;;;;7.93;68.57;100942.25;5057722;28;20040;-74
2022/11/30 03:13:01;;;;;;;11.93;7.38;;;;;;;8.18;67.34;100936.47;5071855;28;20075;-74
2022/11/30 03:15:46;;;;;;;13.98;8.93;;;;;;;8.33;66.64;100932.75;5058596;28;20119;-74
2022/11/30 03:18:31;;;;;;;11.40;7.60;;;;;;;8.11;67.20;100940.66;5072078;28;20055;-74
2022/11/30 03:21:16;;;;;;;13.77;8.40;;;;;;;7.91;68.29;100939.06;5061446;28;20048;-74
2022/11/30 03:24:01;;;;;;;13.48;7.82;;;;;;;7.75;68.40;100932.22;5039239;28;20056;-74
2022/11/30 03:26:45;;;;;;;14.73;9.48;;;;;;;7.94;68.50;100934.94;5056446;28;20047;-74
2022/11/30 03:29:30;;;;;;;14.90;8.43;;;;;;;8.17;67.92;100936.78;5060794;28;20051;-76
2022/11/30 03:32:14;;;;;;;17.98;9.40;;;;;;;8.01;67.54;100935.41;5066033;28;20043;-74
2022/11/30 03:34:59;;;;;;;11.27;7.47;;;;;;;8.04;67.99;100940.22;5055868;28;20421;-74
2022/11/30 03:37:45;;;;;;;11.73;7.00;;;;;;;8.06;67.83;100933.44;5070961;28;20043;-74
2022/11/30 03:40:30;;;;;;;17.85;9.65;;;;;;;8.21;67.56;100935.09;5071467;28;20051;-76
2022/11/30 03:43:15;;;;;;;21.70;11.10;;;;;;;8.30;67.06;100930.66;5071448;28;20068;-74
2022/11/30 03:45:59;;;;;;;16.40;9.93;;;;;;;8.45;66.34;100922.28;5070675;28;20044;-74
2022/11/30 03:48:44;;;;;;;14.10;9.00;;;;;;;8.45;65.54;100925.00;5058526;28;20059;-74
2022/11/30 03:51:29;;;;;;;13.25;7.78;;;;;;;8.28;65.03;100938.22;5056171;28;20059;-74
2022/11/30 03:54:13;;;;;;;12.60;8.48;;;;;;;8.38;65.77;100940.03;5064215;28;20044;-74
2022/11/30 03:56:58;;;;;;;21.35;10.95;;;;;;;8.54;64.88;100939.47;5069916;28;20067;-74
2022/11/30 03:59:43;;;;;;;20.65;8.65;;;;;;;8.39;64.91;100936.19;5066187;28;20040;-74
2022/11/30 04:02:28;;;;;;;14.68;7.28;;;;;;;8.18;65.89;100935.66;5074134;28;20054;-74
2022/11/30 04:05:13;;;;;;;15.93;9.68;;;;;;;8.38;65.51;100935.41;5070925;28;20107;-74
2022/11/30 04:07:58;;;;;;;15.65;8.90;;;;;;;8.26;64.43;100942.34;5057186;28;20047;-74
2022/11/30 04:10:45;;;;;;;;;;;;;;;7.76;67.14;100944.69;5070693;28;20122;-74
2022/11/30 04:13:31;;;;;;;19.75;10.35;;;;;;;8.26;65.46;100943.16;5079101;28;20380;-75
2022/11/30 04:16:17;;;;;;;20.67;12.02;;;;;;;8.13;65.47;100941.16;5050850;28;20496;-75
2022/11/30 04:19:02;;;;;;;19.25;9.68;;;;;;;7.47;68.01;100933.91;5070378;28;20044;-74
2022/11/30 04:21:47;;;;;;;13.95;8.60;;;;;;;7.11;69.93;100944.31;5069516;28;20052;-75
2022/11/30 04:24:31;;;;;;;19.40;8.90;;;;;;;7.52;69.11;100944.69;5057775;28;20036;-75
2022/11/30 04:27:16;;;;;;;20.30;8.95;;;;;;;7.87;68.19;100939.94;5071251;28;20060;-75
2022/11/30 04:30:01;;;;;;;18.98;9.50;;;;;;;7.94;66.92;100941.16;5070368;28;20051;-74
2022/11/30 04:32:46;;;;;;;13.52;7.88;;;;;;;7.37;68.76;100939.44;5071160;28;20043;-75
2022/11/30 04:35:31;;;;;;;14.60;9.10;;;;;;;7.27;69.08;100936.84;5071014;28;20075;-74
2022/11/30 04:38:16;;;;;;;14.40;8.07;;;;;;;7.35;67.74;100938.94;5074402;28;20052;-74
2022/11/30 04:41:06;;;;;;;14.05;8.35;;;;;;;7.70;67.71;100945.84;5051081;28;20516;-75
2022/11/30 04:43:51;;;;;;;22.05;12.43;;;;;;;7.96;65.03;100949.00;5035981;28;20036;-74
2022/11/30 04:46:36;;;;;;;16.88;9.10;;;;;;;8.22;65.19;100947.56;5051196;28;20048;-74
2022/11/30 04:49:21;;;;;;;14.52;8.57;;;;;;;8.40;64.58;100948.66;5062984;28;20043;-74
2022/11/30 04:52:06;;;;;;;15.32;8.82;;;;;;;7.60;66.83;100949.47;5052793;28;20067;-74
2022/11/30 04:54:52;;;;;;;14.95;8.80;;;;;;;7.85;66.36;100947.53;5057763;28;20047;-72
2022/11/30 04:57:37;;;;;;;22.25;11.52;;;;;;;7.76;65.75;100949.28;5071178;28;20437;-76
2022/11/30 05:00:22;;;;;;;16.02;8.68;;;;;;;7.31;67.48;100949.53;5070682;28;20047;-74
2022/11/30 05:03:06;;;;;;;17.95;9.98;;;;;;;7.15;68.24;100950.81;5074161;28;20405;-74
2022/11/30 05:05:51;;;;;;;19.42;11.85;;;;;;;7.10;67.83;100950.03;5068864;28;20115;-74
2022/11/30 05:08:36;;;;;;;17.92;10.50;;;;;;;7.07;68.77;100954.09;5070147;28;20037;-74
2022/11/30 05:11:21;;;;;;;18.10;11.80;;;;;;;7.14;67.61;100949.19;5066218;28;20043;-74
2022/11/30 05:14:05;;;;;;;23.38;12.50;;;;;;;7.20;66.80;100949.94;5054615;28;20049;-74
2022/11/30 05:16:51;;;;;;;18.98;11.23;;;;;;;7.56;68.26;100944.94;5054498;28;20044;-75
2022/11/30 05:19:36;;;;;;;17.08;11.13;;;;;;;8.02;66.41;100947.84;5054273;28;20040;-75
2022/11/30 05:22:20;;;;;;;22.23;13.60;;;;;;;8.33;64.78;100954.44;5069155;28;20047;-75
2022/11/30 05:25:05;;;;;;;19.90;11.18;;;;;;;7.82;64.52;100948.13;5074003;28;20037;-74
2022/11/30 05:27:50;;;;;;;20.15;12.75;;;;;;;7.98;64.59;100950.31;5064335;28;20048;-75
2022/11/30 05:30:37;;;;;;;15.63;9.25;;;;;;;8.04;64.92;100957.28;5074040;28;20043;-75
2022/11/30 05:33:21;;;;;;;18.80;11.85;;;;;;;8.35;64.53;100956.88;5053906;28;20060;-75
2022/11/30 05:36:06;;;;;;;22.40;13.45;;;;;;;8.53;64.03;100956.84;5061511;28;20049;-75
2022/11/30 05:38:51;;;;;;;17.67;10.65;;;;;;;8.69;63.11;100957.41;5066400;28;20036;-75
2022/11/30 05:41:36;;;;;;;21.73;13.02;;;;;;;7.97;64.89;100958.75;5076921;28;20405;-74
2022/11/30 05:44:20;;;;;;;26.05;11.80;;;;;;;8.26;64.63;100969.44;5073818;28;20040;-75
2022/11/30 05:47:05;;;;;;;25.45;12.70;;;;;;;8.41;63.83;100964.63;5076838;28;20045;-75
2022/11/30 05:49:50;;;;;;;18.65;10.65;;;;;;;8.38;63.04;100967.13;5053800;28;20060;-75
2022/11/30 05:52:34;;;;;;;20.38;12.15;;;;;;;7.78;66.10;100974.13;5052866;28;20048;-75
2022/11/30 05:55:19;;;;;;;19.07;9.90;;;;;;;7.51;67.22;100974.75;5053610;28;20052;-75
2022/11/30 05:58:04;;;;;;;16.27;9.98;;;;;;;8.03;65.73;100971.09;5055629;28;20278;-75
2022/11/30 06:00:48;;;;;;;14.57;9.32;;;;;;;8.35;64.12;100973.94;5073164;28;20448;-75
2022/11/30 06:03:34;;;;;;;14.17;8.10;;;;;;;8.45;63.43;100971.06;5073272;28;20523;-75
2022/11/30 06:06:19;;;;;;;18.75;10.82;;;;;;;7.69;65.53;100968.56;5073525;28;20289;-75
2022/11/30 06:09:04;;;;;;;25.65;12.48;;;;;;;7.45;66.19;100971.31;5066131;28;20044;-75
2022/11/30 06:11:50;;;;;;;;;;;;;;;7.26;66.80;100965.03;5074516;28;20413;-75
2022/11/30 06:14:34;;;;;;;22.25;12.07;;;;;;;7.34;65.61;100971.69;5073207;28;19913;-74
2022/11/30 06:17:19;;;;;;;16.02;8.88;;;;;;;7.32;66.93;100972.78;5058236;28;20040;-75
2022/11/30 06:20:05;;;;;;;13.18;9.13;;;;;;;8.03;65.50;100965.69;5068999;28;20048;-75
2022/11/30 06:22:50;;;;;;;22.65;11.27;;;;;;;7.90;65.63;100963.72;5069235;28;20037;-74
2022/11/30 06:25:35;;;;;;;13.27;8.80;;;;;;;7.57;66.88;100963.56;5104871;22;20044;-75
2022/11/30 06:28:20;;;;;;;15.45;9.50;;;;;;;7.53;67.72;100967.94;5086316;28;20051;-75
2022/11/30 06:31:06;;;;;;;17.67;9.85;;;;;;;7.52;67.66;100979.84;5092196;28;20059;-75
2022/11/30 06:33:51;;;;;;;23.15;13.82;;;;;;;7.50;66.62;100973.94;5091728;28;20051;-75
2022/11/30 06:36:36;;;;;;;21.20;9.25;;;;;;;7.50;66.91;100971.25;5082785;28;20408;-76
2022/11/30 06:39:21;;;;;;;;;;;;;;;8.32;65.02;100979.94;5089458;28;20063;-75
2022/11/30 06:42:05;;;;;;;22.70;12.60;;;;;;;7.91;66.61;100984.28;5085378;28;19912;-75
2022/11/30 06:44:50;;;;;;;29.65;12.95;;;;;;;8.08;65.89;100984.56;5090070;28;20051;-74
2022/11/30 06:47:35;;;;;;;25.80;10.10;;;;;;;7.94;65.10;100986.38;5081452;28;20040;-74
2022/11/30 06:50:20;;;;;;;19.23;10.32;;;;;;;8.18;64.79;100990.66;5080113;28;20531;-74
2022/11/30 06:53:04;;;;;;;16.75;10.18;;;;;;;8.48;63.87;100984.00;5094205;28;20048;-74
2022/11/30 06:55:49;;;;;;;17.45;10.23;;;;;;;7.82;65.06;100996.84;5094606;28;20051;-75
2022/11/30 06:58:35;;;;;;;27.50;12.82;;;;;;;7.68;65.23;100991.31;5076120;28;20059;-75
2022/11/30 07:01:19;;;;;;;32.38;13.10;;;;;;;7.48;66.11;100992.34;5079708;28;20046;-75
2022/11/30 07:04:04;;;;;;;29.58;11.07;;;;;;;7.96;64.77;101003.16;5082129;28;20504;-75
2022/11/30 07:06:49;;;;;;;22.27;10.45;;;;;;;8.39;63.81;101002.03;5093364;28;20036;-75
2022/11/30 07:09:34;;;;;;;16.88;10.48;;;;;;;8.64;63.00;101008.97;5092646;28;20067;-76
2022/11/30 07:12:19;;;;;;;22.55;9.75;;;;;;;8.83;61.75;101011.69;5097610;28;20440;-75
2022/11/30 07:15:04;;;;;;;;;;;;;;;8.95;60.90;101022.84;5080376;28;20052;-76
2022/11/30 07:17:49;;;;;;;32.97;12.60;;;;;;;8.98;60.79;101019.56;5076012;28;19920;-76
2022/11/30 07:20:35;;;;;;;17.63;9.38;;;;;;;8.96;61.04;101022.56;5077489;28;20036;-76
2022/11/30 07:26:24;;;;;;;22.70;13.13;;;;;;;7.67;64.83;101020.28;5077498;28;20496;-76
2022/11/30 07:29:09;;;;;;;28.30;13.07;;;;;;;7.46;66.28;101016.22;5073359;28;20400;-76
2022/11/30 07:31:54;;;;;;;32.65;15.02;;;;;;;7.52;67.67;101023.16;5077550;28;20044;-76
2022/11/30 07:34:39;;;;;;;35.60;13.43;;;;;;;7.68;66.67;101030.00;5077096;28;20043;-76
2022/11/30 07:37:24;;;;;;;31.93;13.60;;;;;;;8.13;65.50;101030.53;5081484;28;20043;-76
2022/11/30 07:40:09;;;;;;;22.63;12.65;;;;;;;8.37;64.44;101034.06;5090037;28;20285;-76
2022/11/30 07:42:54;;;;;;;18.05;9.65;;;;;;;8.39;64.20;101022.91;5075560;28;20047;-76
2022/11/30 07:45:39;;;;;;;18.80;9.98;;;;;;;8.44;64.38;101041.81;5091871;28;20421;-77
2022/11/30 07:48:24;;;;;;;20.83;12.02;;;;;;;8.39;66.02;101044.59;5089358;28;20056;-76
2022/11/30 07:51:16;;;;;;;20.75;10.18;;;;;;;8.41;66.27;101048.63;5074606;28;20040;-76
2022/11/30 07:54:01;;;;;;;30.42;12.43;;;;;;;8.43;66.49;101045.63;5091570;28;20044;-76
2022/11/30 07:56:45;;;;;;;20.50;11.50;;;;;;;8.40;66.27;101038.88;5091411;28;20044;-76
2022/11/30 07:59:30;;;;;;;17.85;9.35;;;;;;;8.32;65.92;101046.88;5074349;28;20045;-77
2022/11/30 08:02:15;;;;;;;21.10;9.85;;;;;;;8.17;66.48;101042.44;5089990;28;20043;-76
2022/11/30 08:05:00;;;;;;;17.20;10.32;;;;;;;8.16;66.21;101041.63;5091198;28;20427;-77
2022/11/30 08:07:49;;;;;;;24.60;12.53;;;;;;;7.27;68.98;101043.16;5077844;28;20501;-77
2022/11/30 08:10:33;;;;;;;33.78;14.18;;;;;;;7.20;70.61;101045.41;5081578;28;20516;-77
2022/11/30 08:13:18;;;;;;;20.58;10.75;;;;;;;7.20;69.10;101041.88;5091341;28;20051;-76
2022/11/30 08:16:05;;;;;;;21.77;11.60;;;;;;;7.88;65.40;101049.81;5076101;28;20047;-78
2022/11/30 08:18:51;;;;;;;24.38;14.48;;;;;;;7.84;64.90;101041.47;5090830;28;20047;-77
2022/11/30 08:21:36;;;;;;;29.88;13.68;;;;;;;8.10;63.62;101055.50;5087817;28;20480;-78
2022/11/30 08:24:21;;;;;;;22.42;12.82;;;;;;;8.42;61.66;101054.84;5077637;28;20043;-77
2022/11/30 08:27:06;;;;;;;24.53;13.47;;;;;;;8.57;61.24;101065.47;5090531;28;20408;-78
2022/11/30 08:29:51;;;;;;;24.80;13.32;;;;;;;8.84;60.76;101081.06;5089985;28;20067;-78
2022/11/30 08:32:35;;;;;;;20.00;11.02;;;;;;;8.48;61.73;101076.16;5074504;28;20040;-77
2022/11/30 08:35:19;;;;;;;18.65;11.10;;;;;;;8.52;62.85;101082.63;5078079;28;20055;-77
2022/11/30 08:38:04;;;;;;;18.10;10.52;;;;;;;8.68;61.85;101085.13;5070628;28;20044;-78
2022/11/30 08:40:49;;;;;;;19.57;12.27;;;;;;;8.37;62.25;101080.13;5077904;28;20044;-78
2022/11/30 08:43:33;;;;;;;18.15;10.02;;;;;;;8.54;62.28;101083.13;5079962;28;20270;-77
2022/11/30 08:46:21;;;;;;;17.05;9.95;;;;;;;8.68;61.45;101093.25;5098804;28;20032;-77
2022/11/30 08:49:06;;;;;;;21.27;12.52;;;;;;;8.95;60.73;101088.75;5093998;28;20051;-77
2022/11/30 08:51:52;;;;;;;21.95;13.43;;;;;;;9.39;59.52;101093.75;5079713;28;20040;-78
2022/11/30 08:54:41;;;;;;;20.98;13.18;;;;;;;9.37;58.56;101092.41;5083579;28;20044;-78
2022/11/30 08:57:26;;;;;;;26.08;13.82;;;;;;;9.13;59.26;101091.75;5094255;28;20515;-76
2022/11/30 09:00:11;;;;;;;15.85;9.88;;;;;;;8.90;59.07;101088.84;5079489;28;20048;-77
2022/11/30 09:02:56;;;;;;;21.52;13.20;;;;;;;9.03;59.98;101090.00;5094412;28;20051;-77
2022/11/30 09:05:40;;;;;;;22.47;11.73;;;;;;;8.55;62.05;101092.06;5079916;28;20040;-78
2022/11/30 09:08:25;;;;;;;17.80;11.15;;;;;;;8.89;58.97;101089.13;5079643;28;20269;-78
2022/11/30 09:11:16;;;;;;;19.98;10.10;;;;;;;9.15;58.62;101092.25;5083962;28;20052;-78
2022/11/30 09:14:04;;;;;;;23.17;14.40;;;;;;;9.15;59.31;101087.63;5081313;28;20051;-78
2022/11/30 09:16:48;;;;;;;25.15;12.60;;;;;;;8.96;59.27;101084.13;5079446;28;20044;-77
2022/11/30 09:19:33;;;;;;;24.17;11.63;;;;;;;9.55;58.12;101077.97;5083917;28;20047;-77
2022/11/30 09:22:18;;;;;;;19.33;10.90;;;;;;;9.62;57.80;101088.44;5081797;28;20273;-78
2022/11/30 09:25:02;;;;;;;26.67;10.17;;;;;;;9.22;56.92;101096.19;5079574;28;20051;-78
2022/11/30 09:27:47;;;;;;;16.55;9.57;;;;;;;9.95;55.05;101087.28;5083688;28;20269;-77
2022/11/30 09:30:31;;;;;;;16.80;10.40;;;;;;;9.55;56.52;101088.81;5081827;28;20058;-76
2022/11/30 09:33:16;;;;;;;23.58;12.68;;;;;;;9.44;56.51;101093.66;5079719;28;20036;-78
2022/11/30 09:36:04;;;;;;;39.63;14.32;;;;;;;9.11;58.34;101096.66;5094151;28;20564;-78
2022/11/30 09:38:49;;;;;;;30.75;14.63;;;;;;;8.95;58.26;101090.66;5078997;28;20051;-78
2022/11/30 09:41:44;;;;;;;22.48;11.07;;;;;;;9.23;57.71;101097.81;5093054;28;20039;-78
2022/11/30 09:44:45;;;;;;;29.83;14.18;;;;;;;9.40;57.05;101094.53;5090875;28;20047;-78
2022/11/30 09:48:03;;;;;;;31.75;9.20;;;;;;;10.82;59.82;101089.78;5094072;28;20036;-81
2022/11/30 09:50:51;;;;;;;28.58;13.80;;;;;;;11.02;53.26;101077.63;5090647;28;20389;-84
2022/11/30 09:53:43;;;;;;;19.58;12.38;;;;;;;10.90;53.09;101080.09;5096557;28;20044;-84
2022/11/30 09:56:33;;;;;;;25.90;12.00;;;;;;;11.00;53.13;101086.09;5088538;28;20036;-86
2022/11/30 09:59:20;;;;;;;18.60;10.32;;;;;;;10.85;51.89;101072.84;5068552;28;20040;-86
2022/11/30 10:02:16;;;;;;;26.73;11.05;;;;;;;10.77;52.24;101056.47;5082777;28;20500;-86
2022/11/30 10:05:01;;;;;;;14.93;8.68;;;;;;;10.91;50.74;101063.47;5079897;28;20044;-87
2022/11/30 10:07:49;;;;;;;14.88;8.55;;;;;;;10.83;50.39;101064.19;5107250;28;20047;-86
2022/11/30 10:11:04;;;;;;;17.95;9.65;;;;;;;10.82;50.51;101057.13;5098266;28;20051;-86
2022/11/30 10:14:11;;;;;;;11.07;7.60;;;;;;;10.72;49.56;101057.38;5088291;28;20040;-86
2022/11/30 10:17:17;;;;;;;15.23;8.25;;;;;;;10.88;49.16;101058.63;5088293;28;20040;-87
2022/11/30 10:20:07;;;;;;;15.23;8.05;;;;;;;10.78;49.96;101058.06;5084536;28;20418;-87
2022/11/30 10:23:05;;;;;;;29.00;16.30;;;;;;;10.72;50.69;101051.94;5081514;28;20170;-86
2022/11/30 10:26:01;;;;;;;16.13;9.68;;;;;;;10.73;51.78;101051.63;5062257;28;20405;-85
2022/11/30 10:28:51;;;;;;;12.98;8.52;;;;;;;10.93;50.46;101042.19;5071189;28;20054;-85
2022/11/30 10:31:38;;;;;;;16.45;9.27;;;;;;;11.12;50.27;101044.72;5102217;28;20040;-85
2022/11/30 10:34:30;;;;;;;16.90;10.10;;;;;;;11.22;49.43;101040.94;5095880;28;20508;-85
2022/11/30 10:37:21;;;;;;;17.70;10.43;;;;;;;11.21;50.24;101048.31;5087339;28;20416;-85
2022/11/30 10:40:25;;;;;;;15.98;8.70;;;;;;;11.43;48.43;101039.28;5086648;28;20048;-83
2022/11/30 10:43:13;;;;;;;18.83;11.30;;;;;;;11.51;49.35;101038.53;5080345;28;20047;-79
2022/11/30 10:45:57;;;;;;;20.75;10.98;;;;;;;11.84;48.92;101039.81;5079539;28;20032;-84
2022/11/30 10:48:47;;;;;;;19.60;9.32;;;;;;;11.79;47.31;101036.41;5086777;28;20075;-85
2022/11/30 10:51:36;;;;;;;16.85;9.18;;;;;;;12.05;47.33;101033.78;5086135;28;20046;-83
2022/11/30 10:54:22;;;;;;;13.80;8.65;;;;;;;12.23;47.39;101033.50;5095885;28;20047;-82
2022/11/30 10:57:08;;;;;;;11.27;6.80;;;;;;;12.15;44.89;101028.03;5077456;28;20032;-84
2022/11/30 10:59:55;;;;;;;12.95;7.20;;;;;;;12.02;44.61;101026.25;5078488;28;20051;-83
2022/11/30 11:02:46;;;;;;;11.40;7.43;;;;;;;11.67;46.42;101025.31;5084407;28;20384;-83
2022/11/30 11:05:31;;;;;;;15.50;8.80;;;;;;;11.66;49.02;101024.50;5079515;28;20477;-85
2022/11/30 11:08:26;;;;;;;17.83;9.02;;;;;;;11.59;49.70;101022.22;5086910;28;20542;-84
2022/11/30 11:11:36;;;;;;;13.73;7.07;;;;;;;11.83;48.79;101016.41;5088518;28;20043;-87
2022/11/30 11:14:23;;;;;;;18.23;9.57;;;;;;;11.95;46.31;101016.59;5079394;28;20040;-84
2022/11/30 11:17:17;;;;;;;18.00;8.63;;;;;;;12.17;45.23;101020.34;5082381;28;20043;-82
2022/11/30 11:20:02;;;;;;;15.63;7.63;;;;;;;12.22;45.29;101018.25;5090574;28;20452;-83
2022/11/30 11:22:47;;;;;;;11.30;7.20;;;;;;;12.06;45.92;100999.94;5092001;28;20496;-84
2022/11/30 11:25:34;;;;;;;;;;;;;;;12.09;44.84;101008.28;5077095;28;20048;-83
2022/11/30 11:28:24;;;;;;;17.27;9.25;;;;;;;12.10;43.36;101006.38;5080765;28;19912;-83
2022/11/30 11:31:33;;;;;;;10.60;5.80;;;;;;;12.01;42.62;100998.19;5084295;28;20040;-81
2022/11/30 11:34:33;;;;;;;11.07;6.13;;;;;;;11.88;41.93;101001.84;5091912;28;20412;-82
2022/11/30 11:37:22;;;;;;;10.07;5.35;;;;;;;11.67;42.62;101007.03;5095146;28;20402;-84
2022/11/30 11:40:07;;;;;;;10.02;5.93;;;;;;;11.48;42.62;101007.25;5081971;28;20492;-82
2022/11/30 11:42:54;;;;;;;11.60;5.60;;;;;;;11.33;41.64;100995.97;5091214;28;20050;-83
2022/11/30 11:45:38;;;;;;;7.95;5.03;;;;;;;11.36;41.40;101007.06;5079381;28;20044;-85
2022/11/30 11:48:34;;;;;;;5.07;3.63;;;;;;;11.25;41.17;100999.47;5084924;28;20047;-85
2022/11/30 11:51:29;;;;;;;5.97;3.88;;;;;;;11.43;40.92;100996.50;5093535;28;20047;-85
2022/11/30 11:54:46;;;;;;;6.90;3.83;;;;;;;11.55;42.00;101004.09;5080550;28;20039;-84
2022/11/30 11:57:45;;;;;;;8.35;4.05;;;;;;;11.57;41.50;100994.50;5063168;28;20055;-85
2022/11/30 12:00:30;;;;;;;7.57;5.00;;;;;;;11.55;41.56;100987.75;5082738;28;20129;-85
2022/11/30 12:03:25;;;;;;;6.40;3.88;;;;;;;11.65;41.22;100992.13;5091642;28;20048;-83
2022/11/30 12:06:18;;;;;;;8.27;3.65;;;;;;;11.44;41.63;100997.31;5077092;28;20039;-83
2022/11/30 12:09:14;;;;;;;8.57;4.28;;;;;;;11.34;42.23;100984.78;5068788;28;20137;-82
2022/11/30 12:11:59;;;;;;;5.88;4.22;;;;;;;11.43;40.62;100984.81;5083499;28;20043;-83
2022/11/30 12:14:44;;;;;;;8.70;4.45;;;;;;;11.54;41.22;100975.25;5080333;28;20067;-80
2022/11/30 12:17:54;;;;;;;4.95;3.50;;;;;;;11.54;40.79;100975.25;5084421;28;20047;-81
2022/11/30 12:20:57;;;;;;;7.85;4.35;;;;;;;11.58;41.03;100970.78;5096634;28;20055;-81
2022/11/30 12:23:47;;;;;;;7.43;4.43;;;;;;;11.55;40.66;100972.22;5084620;28;20047;-82
2022/11/30 12:26:35;;;;;;;8.73;4.45;;;;;;;11.63;41.38;100967.91;5080603;28;20051;-84
2022/11/30 12:29:24;;;;;;;10.30;6.07;;;;;;;11.86;41.05;100977.63;5096767;28;20047;-84
2022/11/30 12:32:11;;;;;;;12.30;5.80;;;;;;;11.95;41.17;100974.91;5084508;28;20052;-82
2022/11/30 12:35:08;;;;;;;11.75;5.28;;;;;;;12.08;39.97;100968.53;5082686;28;20052;-82
2022/11/30 12:38:20;;;;;;;12.10;5.85;;;;;;;12.00;40.28;100966.59;5085975;28;20048;-82
2022/11/30 12:41:17;;;;;;;9.18;5.60;;;;;;;12.11;40.60;100967.09;5090193;28;20047;-79
2022/11/30 12:44:30;;;;;;;13.20;5.70;;;;;;;11.85;40.98;100967.03;5114246;22;20052;-83
2022/11/30 12:47:43;;;;;;;10.00;6.03;;;;;;;12.11;40.66;100962.44;5060499;28;20049;-82
2022/11/30 12:51:05;;;;;;;10.18;5.53;;;;;;;12.67;39.98;100956.00;5076150;28;20055;-81
2022/11/30 12:54:15;;;;;;;11.32;6.32;;;;;;;12.78;39.23;100964.66;5076960;28;20032;-81
2022/11/30 12:57:09;;;;;;;9.63;5.75;;;;;;;12.98;38.22;100963.19;5056472;28;20068;-81
2022/11/30 13:00:02;;;;;;;8.75;5.43;;;;;;;12.81;38.33;100956.63;5042709;28;20049;-81
2022/11/30 13:02:53;;;;;;;13.73;6.38;;;;;;;12.64;39.82;100967.59;5056541;28;20044;-82